createdAt,value
2023-04-28T00:00:54.033Z,97836.19
2023-04-28T00:04:56.174Z,97820.53
2023-04-28T00:08:58.246Z,97802.47
2023-04-28T00:13:01.123Z,97793.53
2023-04-28T00:17:03.327Z,97795.16
2023-04-28T00:21:05.507Z,97781.81
2023-04-28T00:25:08.490Z,97774.31
2023-04-28T00:29:10.650Z,97778.44
2023-04-28T00:33:13.633Z,97767.28
2023-04-28T00:37:15.747Z,97776.94
2023-04-28T00:41:17.774Z,97758.53
2023-04-28T00:45:20.422Z,97757.53
2023-04-28T00:49:22.455Z,97757.75
2023-04-28T00:53:24.624Z,97764.38
2023-04-28T00:57:27.088Z,97748.44
2023-04-28T01:01:29.302Z,97745.66
2023-04-28T01:05:31.773Z,97734.16
2023-04-28T01:09:34.027Z,97722.69
2023-04-28T01:13:36.333Z,97715.59
2023-04-28T01:17:38.416Z,97711.91
2023-04-28T01:21:40.451Z,97717.88
2023-04-28T01:25:54.229Z,97717.13
2023-04-28T01:29:58.298Z,97718.16
2023-04-28T01:34:00.736Z,97707.66
2023-04-28T01:38:02.785Z,97707.81
2023-04-28T01:42:05.054Z,97704.84
2023-04-28T01:46:08.146Z,97692.22
2023-04-28T01:50:10.563Z,97689.56
2023-04-28T01:54:12.551Z,97681.53
2023-04-28T01:58:15.266Z,97668.59
2023-04-28T02:02:17.370Z,97671.84
2023-04-28T02:06:19.892Z,97676.59
2023-04-28T02:10:21.908Z,97681.28
2023-04-28T02:14:24.424Z,97687.09
2023-04-28T02:18:26.632Z,97691.91
2023-04-28T02:22:28.669Z,97674.19
2023-04-28T02:26:30.682Z,97669.06
2023-04-28T02:30:32.686Z,97663.00
2023-04-28T02:34:34.746Z,97661.13
2023-04-28T02:38:37.139Z,97656.28
2023-04-28T02:42:40.866Z,97649.25
2023-04-28T02:46:42.893Z,97662.28
2023-04-28T02:50:46.262Z,97668.38
2023-04-28T02:54:49.246Z,97656.09
2023-04-28T02:58:52.767Z,97645.63
2023-04-28T03:02:55.316Z,97634.97
2023-04-28T03:06:57.451Z,97635.75
2023-04-28T03:10:59.518Z,97633.91
2023-04-28T03:15:03.341Z,97632.06
2023-04-28T03:19:05.454Z,97631.88
2023-04-28T03:23:07.495Z,97617.84
2023-04-28T03:27:10.360Z,97606.44
2023-04-28T03:31:12.469Z,97595.03
2023-04-28T03:35:14.715Z,97597.72
2023-04-28T03:39:17.480Z,97587.41
2023-04-28T03:43:19.629Z,97590.25
2023-04-28T03:47:40.166Z,97594.81
2023-04-28T03:51:42.313Z,97597.66
2023-04-28T03:55:44.971Z,97594.25
2023-04-28T03:59:47.579Z,97587.19
2023-04-28T04:03:49.747Z,97573.91
2023-04-28T04:07:53.284Z,97569.56
2023-04-28T04:11:55.306Z,97559.09
2023-04-28T04:15:58.273Z,97569.41
2023-04-28T04:20:00.449Z,97566.56
2023-04-28T04:24:02.497Z,97573.06
2023-04-28T04:28:05.041Z,97585.84
2023-04-28T04:32:07.333Z,97590.84
2023-04-28T04:36:10.143Z,97606.00
2023-04-28T04:40:12.416Z,97598.19
2023-04-28T04:44:21.674Z,97598.19
2023-04-28T04:48:25.935Z,97592.66
2023-04-28T04:52:28.104Z,97608.38
2023-04-28T04:56:30.810Z,97609.38
2023-04-28T05:00:33.710Z,97605.91
2023-04-28T05:04:36.568Z,97600.59
2023-04-28T05:08:39.249Z,97595.78
2023-04-28T05:12:41.545Z,97587.31
2023-04-28T05:16:43.829Z,97582.63
2023-04-28T05:20:50.927Z,97575.59
2023-04-28T05:24:54.202Z,97575.00
2023-04-28T05:28:56.350Z,97576.91
2023-04-28T05:32:58.387Z,97570.25
2023-04-28T05:37:00.820Z,97575.56
2023-04-28T05:41:04.842Z,97577.13
2023-04-28T05:45:07.418Z,97583.13
2023-04-28T05:49:10.110Z,97586.88
2023-04-28T05:53:13.039Z,97577.88
2023-04-28T05:57:15.647Z,97574.31
2023-04-28T06:01:18.370Z,97577.75
2023-04-28T06:05:21.993Z,97593.66
2023-04-28T06:09:26.205Z,97604.19
2023-04-28T06:13:28.754Z,97609.63
2023-04-28T06:17:32.697Z,97622.50
2023-04-28T06:21:34.795Z,97606.91
2023-04-28T06:25:38.355Z,97589.47
2023-04-28T06:29:40.403Z,97597.06
2023-04-28T06:33:42.408Z,97600.22
2023-04-28T06:37:44.537Z,97597.66
2023-04-28T06:41:47.164Z,97588.31
2023-04-28T06:45:49.525Z,97589.44
2023-04-28T06:49:52.286Z,97588.16
2023-04-28T06:53:54.378Z,97583.75
2023-04-28T06:57:56.410Z,97576.72
2023-04-28T07:01:58.429Z,97570.97
2023-04-28T07:06:00.623Z,97567.47
2023-04-28T07:10:02.724Z,97568.78
2023-04-28T07:14:04.786Z,97574.03
2023-04-28T07:18:07.488Z,97560.75
2023-04-28T07:22:09.632Z,97560.34
2023-04-28T07:26:13.655Z,97554.44
2023-04-28T07:30:29.395Z,97541.50
2023-04-28T07:34:31.508Z,97535.88
2023-04-28T07:38:37.279Z,97523.00
2023-04-28T07:42:39.282Z,97508.66
2023-04-28T07:46:41.403Z,97519.53
2023-04-28T07:50:43.506Z,97528.09
2023-04-28T07:54:45.541Z,97534.78
2023-04-28T07:58:47.819Z,97536.16
2023-04-28T08:02:49.955Z,97549.91
2023-04-28T08:06:52.855Z,97547.78
2023-04-28T08:10:55.024Z,97546.56
2023-04-28T08:14:57.325Z,97553.88
2023-04-28T08:19:00.404Z,97550.69
2023-04-28T08:23:02.588Z,97562.25
2023-04-28T08:27:04.968Z,97557.50
2023-04-28T08:31:07.237Z,97560.56
2023-04-28T08:35:10.031Z,97564.06
2023-04-28T08:39:13.544Z,97557.53
2023-04-28T08:43:16.311Z,97551.94
2023-04-28T08:47:21.226Z,97568.72
2023-04-28T08:51:40.888Z,97558.03
2023-04-28T08:55:44.868Z,97561.66
2023-04-28T08:59:47.571Z,97557.53
2023-04-28T09:03:50.089Z,97561.00
2023-04-28T09:07:52.333Z,97570.00
2023-04-28T09:11:55.977Z,97569.34
2023-04-28T09:16:02.861Z,97561.19
2023-04-28T09:20:20.264Z,97558.41
2023-04-28T09:24:42.825Z,97555.94
2023-04-28T09:28:44.959Z,97560.09
2023-04-28T09:33:04.314Z,97559.63
2023-04-28T09:37:19.804Z,97557.16
2023-04-28T09:41:22.873Z,97556.91
2023-04-28T09:45:25.827Z,97559.63
2023-04-28T09:49:27.874Z,97561.28
2023-04-28T09:53:30.682Z,97560.47
2023-04-28T09:57:35.500Z,97558.25
2023-04-28T10:01:40.542Z,97557.66
2023-04-28T10:05:43.074Z,97562.53
2023-04-28T10:09:47.953Z,97567.78
2023-04-28T10:13:50.075Z,97555.16
2023-04-28T10:17:53.461Z,97555.53
2023-04-28T10:22:19.627Z,97544.28
2023-04-28T10:26:25.329Z,97542.34
2023-04-28T10:30:29.519Z,97532.97
2023-04-28T10:34:32.082Z,97529.22
2023-04-28T10:38:35.068Z,97526.88
2023-04-28T10:42:54.662Z,97514.88
2023-04-28T10:47:04.831Z,97499.47
2023-04-28T10:51:07.433Z,97496.56
2023-04-28T10:55:36.798Z,97499.66
2023-04-28T10:59:38.916Z,97514.81
2023-04-28T11:03:51.506Z,97510.63
2023-04-28T11:08:26.666Z,97519.34
2023-04-28T11:12:28.713Z,97514.88
2023-04-28T11:16:32.814Z,97504.69
2023-04-28T11:20:36.100Z,97494.44
2023-04-28T11:24:38.199Z,97506.88
2023-04-28T11:28:51.379Z,97516.38
2023-04-28T11:32:53.746Z,97515.63
2023-04-28T11:36:56.137Z,97515.63
2023-04-28T11:40:59.216Z,97511.50
2023-04-28T11:45:01.364Z,97515.25
2023-04-28T11:49:05.682Z,97499.56
2023-04-28T11:53:07.794Z,97489.28
2023-04-28T11:57:21.201Z,97488.16
2023-04-28T12:01:23.256Z,97493.94
2023-04-28T12:05:25.568Z,97488.69
2023-04-28T12:09:27.800Z,97482.47
2023-04-28T12:13:30.048Z,97483.56
2023-04-28T12:17:39.495Z,97483.09
2023-04-28T12:21:42.636Z,97483.66
2023-04-28T12:25:47.193Z,97480.53
2023-04-28T12:29:49.303Z,97481.72
2023-04-28T12:33:51.341Z,97476.81
2023-04-28T12:37:55.260Z,97488.13
2023-04-28T12:41:59.316Z,97489.44
2023-04-28T12:46:01.494Z,97487.63
2023-04-28T12:50:03.965Z,97481.78
2023-04-28T12:54:06.870Z,97483.09
2023-04-28T12:58:08.957Z,97477.31
2023-04-28T13:02:11.098Z,97474.13
2023-04-28T13:06:13.185Z,97493.41
2023-04-28T13:10:15.260Z,97495.41
2023-04-28T13:14:17.299Z,97478.38
2023-04-28T13:18:19.338Z,97464.00
2023-04-28T13:22:24.454Z,97467.72
2023-04-28T13:26:26.787Z,97463.75
2023-04-28T13:30:28.804Z,97462.94
2023-04-28T13:34:31.510Z,97450.06
2023-04-28T13:38:33.644Z,97443.09
2023-04-28T13:42:35.704Z,97430.81
2023-04-28T13:46:37.726Z,97425.94
2023-04-28T13:50:39.838Z,97428.41
2023-04-28T13:54:41.876Z,97410.91
2023-04-28T13:58:43.916Z,97410.09
2023-04-28T14:02:46.545Z,97421.47
2023-04-28T14:06:50.397Z,97424.38
2023-04-28T14:10:52.417Z,97418.66
2023-04-28T14:14:54.418Z,97444.31
2023-04-28T14:18:56.485Z,97461.50
2023-04-28T14:22:59.362Z,97486.69
2023-04-28T14:27:01.432Z,97484.88
2023-04-28T14:31:07.009Z,97466.53
2023-04-28T14:35:11.164Z,97413.06
2023-04-28T14:39:13.210Z,97441.84
2023-04-28T14:43:15.230Z,97427.00
2023-04-28T14:47:17.280Z,97417.78
2023-04-28T14:51:19.363Z,97422.06
2023-04-28T14:55:21.492Z,97417.91
2023-04-28T14:59:23.541Z,97424.81
2023-04-28T15:03:25.757Z,97427.25
2023-04-28T15:07:31.304Z,97420.91
2023-04-28T15:11:33.489Z,97429.72
2023-04-28T15:15:35.940Z,97431.53
2023-04-28T15:19:38.004Z,97425.16
2023-04-28T15:23:40.535Z,97427.81
2023-04-28T15:27:42.791Z,97420.44
2023-04-28T15:31:45.285Z,97428.50
2023-04-28T15:35:47.464Z,97425.97
2023-04-28T15:39:49.604Z,97425.28
2023-04-28T15:43:52.011Z,97432.78
2023-04-28T15:47:55.056Z,97429.41
2023-04-28T15:51:57.213Z,97423.50
2023-04-28T15:55:59.553Z,97427.59
2023-04-28T16:00:01.598Z,97423.84
2023-04-28T16:04:09.848Z,97443.69
2023-04-28T16:08:12.446Z,97439.25
2023-04-28T16:12:14.559Z,97446.22
2023-04-28T16:16:16.742Z,97423.81
2023-04-28T16:20:19.487Z,97415.63
2023-04-28T16:24:22.457Z,97404.44
2023-04-28T16:28:24.859Z,97397.81
2023-04-28T16:32:27.712Z,97375.72
2023-04-28T16:36:33.028Z,97359.78
2023-04-28T16:40:35.097Z,97344.84
2023-04-28T16:44:37.094Z,97362.06
2023-04-28T16:48:39.118Z,97372.41
2023-04-28T16:52:41.638Z,97382.66
2023-04-28T16:56:43.650Z,97391.81
2023-04-28T17:00:45.678Z,97409.81
2023-04-28T17:04:47.820Z,97401.03
2023-04-28T17:08:49.857Z,97400.06
2023-04-28T17:12:52.477Z,97397.53
2023-04-28T17:16:54.852Z,97378.03
2023-04-28T17:20:57.441Z,97390.53
2023-04-28T17:24:59.581Z,97391.59
2023-04-28T17:29:02.403Z,97398.19
2023-04-28T17:33:05.117Z,97384.47
2023-04-28T17:37:07.217Z,97383.38
2023-04-28T17:41:09.245Z,97389.47
2023-04-28T17:45:11.733Z,97386.31
2023-04-28T17:49:13.765Z,97387.00
2023-04-28T17:53:16.269Z,97409.81
2023-04-28T17:57:18.735Z,97407.97
2023-04-28T18:01:21.135Z,97414.22
2023-04-28T18:05:24.294Z,97416.59
2023-04-28T18:09:27.109Z,97417.03
2023-04-28T18:13:29.367Z,97407.44
2023-04-28T18:17:33.235Z,97422.16
2023-04-28T18:21:35.320Z,97435.72
2023-04-28T18:25:37.716Z,97439.34
2023-04-28T18:29:40.242Z,97442.50
2023-04-28T18:33:42.421Z,97452.47
2023-04-28T18:37:45.411Z,97451.94
2023-04-28T18:41:47.519Z,97455.75
2023-04-28T18:45:49.852Z,97454.50
2023-04-28T18:49:52.166Z,97466.06
2023-04-28T18:53:54.308Z,97470.25
2023-04-28T18:57:56.428Z,97477.09
2023-04-28T19:01:58.506Z,97479.00
2023-04-28T19:06:01.764Z,97481.09
2023-04-28T19:10:05.100Z,97494.91
2023-04-28T19:14:07.393Z,97506.34
2023-04-28T19:18:09.554Z,97501.50
2023-04-28T19:22:31.499Z,97512.63
2023-04-28T19:26:33.601Z,97519.66
2023-04-28T19:30:35.898Z,97528.97
2023-04-28T19:34:37.927Z,97534.50
2023-04-28T19:38:40.298Z,97550.22
2023-04-28T19:42:42.440Z,97554.72
2023-04-28T19:46:46.144Z,97557.28
2023-04-28T19:50:48.391Z,97569.72
2023-04-28T19:54:50.909Z,97577.88
2023-04-28T19:58:52.970Z,97587.47
2023-04-28T20:02:55.170Z,97594.25
2023-04-28T20:06:57.372Z,97591.78
2023-04-28T20:10:59.458Z,97595.56
2023-04-28T20:15:01.669Z,97595.97
2023-04-28T20:19:03.716Z,97601.00
2023-04-28T20:23:06.020Z,97591.69
2023-04-28T20:27:08.197Z,97602.91
2023-04-28T20:31:10.501Z,97608.66
2023-04-28T20:35:13.068Z,97607.63
2023-04-28T20:39:15.104Z,97606.31
2023-04-28T20:43:17.138Z,97605.66
2023-04-28T20:47:19.215Z,97607.25
2023-04-28T20:51:21.407Z,97601.97
2023-04-28T20:55:23.502Z,97597.66
2023-04-28T20:59:25.681Z,97601.38
2023-04-28T21:03:29.776Z,97604.09
2023-04-28T21:07:31.839Z,97599.56
2023-04-28T21:11:33.908Z,97601.13
2023-04-28T21:15:37.274Z,97599.97
2023-04-28T21:19:39.318Z,97597.22
2023-04-28T21:23:42.627Z,97593.34
2023-04-28T21:27:44.685Z,97592.94
2023-04-28T21:31:47.394Z,97591.75
2023-04-28T21:35:49.501Z,97601.00
2023-04-28T21:39:52.006Z,97601.69
2023-04-28T21:43:55.151Z,97593.72
2023-04-28T21:47:59.999Z,97599.75
2023-04-28T21:52:02.322Z,97602.19
2023-04-28T21:56:05.649Z,97598.50
2023-04-28T22:00:10.627Z,97598.94
2023-04-28T22:04:15.351Z,97598.19
2023-04-28T22:08:17.520Z,97595.31
2023-04-28T22:12:19.628Z,97599.38
2023-04-28T22:16:22.180Z,97606.13
2023-04-28T22:20:24.405Z,97603.38
2023-04-28T22:24:27.503Z,97609.53
2023-04-28T22:28:30.179Z,97609.53
2023-04-28T22:32:32.266Z,97606.91
2023-04-28T22:36:34.279Z,97608.53
2023-04-28T22:40:36.373Z,97598.19
2023-04-28T22:44:38.393Z,97603.88
2023-04-28T22:48:40.407Z,97601.38
2023-04-28T22:52:42.484Z,97603.25
2023-04-28T22:56:44.490Z,97597.47
2023-04-28T23:00:46.547Z,97607.31
2023-04-28T23:04:49.070Z,97610.94
2023-04-28T23:08:51.517Z,97605.59
2023-04-28T23:12:53.658Z,97605.47
2023-04-28T23:16:55.929Z,97605.47
2023-04-28T23:20:58.059Z,97602.06
2023-04-28T23:25:00.138Z,97598.81
2023-04-28T23:29:02.222Z,97606.56
2023-04-28T23:33:04.915Z,97610.84
2023-04-28T23:37:07.219Z,97612.56
2023-04-28T23:41:09.297Z,97619.50
2023-04-28T23:45:11.645Z,97613.16
2023-04-28T23:49:13.674Z,97622.56
2023-04-28T23:53:15.714Z,97622.56
2023-04-28T23:57:17.754Z,97609.59
